sensor_id;sensor_type;location;lat;lon;timestamp;P1;durP1;ratioP1;P2;durP2;ratioP2
38465;SDS011;24244;51.950;5.902;2023-07-28T00:02:05;5.85;;;4.13;;
38465;SDS011;24244;51.950;5.902;2023-07-28T00:04:33;6.38;;;3.45;;
38465;SDS011;24244;51.950;5.902;2023-07-28T00:07:01;5.38;;;3.58;;
38465;SDS011;24244;51.950;5.902;2023-07-28T00:09:28;5.32;;;3.60;;
38465;SDS011;24244;51.950;5.902;2023-07-28T00:11:56;5.35;;;2.92;;
38465;SDS011;24244;51.950;5.902;2023-07-28T00:14:24;4.93;;;3.30;;
38465;SDS011;24244;51.950;5.902;2023-07-28T00:16:51;5.95;;;3.95;;
38465;SDS011;24244;51.950;5.902;2023-07-28T00:19:18;5.95;;;3.58;;
38465;SDS011;24244;51.950;5.902;2023-07-28T00:21:45;6.10;;;3.67;;
38465;SDS011;24244;51.950;5.902;2023-07-28T00:24:12;7.70;;;4.10;;
38465;SDS011;24244;51.950;5.902;2023-07-28T00:26:39;5.97;;;3.70;;
38465;SDS011;24244;51.950;5.902;2023-07-28T00:29:08;4.93;;;2.95;;
38465;SDS011;24244;51.950;5.902;2023-07-28T00:31:35;5.88;;;3.20;;
38465;SDS011;24244;51.950;5.902;2023-07-28T00:34:02;5.88;;;3.38;;
38465;SDS011;24244;51.950;5.902;2023-07-28T00:36:29;5.10;;;3.45;;
38465;SDS011;24244;51.950;5.902;2023-07-28T00:38:56;5.55;;;3.58;;
38465;SDS011;24244;51.950;5.902;2023-07-28T00:41:23;6.63;;;3.67;;
38465;SDS011;24244;51.950;5.902;2023-07-28T00:43:50;4.30;;;3.05;;
38465;SDS011;24244;51.950;5.902;2023-07-28T00:46:18;5.45;;;3.13;;
38465;SDS011;24244;51.950;5.902;2023-07-28T00:48:45;4.95;;;3.30;;
38465;SDS011;24244;51.950;5.902;2023-07-28T00:51:12;5.55;;;3.65;;
38465;SDS011;24244;51.950;5.902;2023-07-28T00:53:39;5.50;;;3.40;;
38465;SDS011;24244;51.950;5.902;2023-07-28T00:56:07;5.25;;;3.33;;
38465;SDS011;24244;51.950;5.902;2023-07-28T00:58:34;5.57;;;3.42;;
38465;SDS011;24244;51.950;5.902;2023-07-28T01:01:00;6.40;;;4.13;;
38465;SDS011;24244;51.950;5.902;2023-07-28T01:03:29;5.13;;;3.45;;
38465;SDS011;24244;51.950;5.902;2023-07-28T01:05:59;5.53;;;3.67;;
38465;SDS011;24244;51.950;5.902;2023-07-28T01:08:37;7.28;;;3.88;;
38465;SDS011;24244;51.950;5.902;2023-07-28T01:11:09;5.03;;;3.47;;
38465;SDS011;24244;51.950;5.902;2023-07-28T01:13:35;6.32;;;3.42;;
38465;SDS011;24244;51.950;5.902;2023-07-28T01:16:02;5.88;;;3.65;;
38465;SDS011;24244;51.950;5.902;2023-07-28T01:18:30;5.97;;;3.63;;
38465;SDS011;24244;51.950;5.902;2023-07-28T01:20:57;5.80;;;3.33;;
38465;SDS011;24244;51.950;5.902;2023-07-28T01:23:29;6.50;;;3.83;;
38465;SDS011;24244;51.950;5.902;2023-07-28T01:26:05;5.70;;;3.50;;
38465;SDS011;24244;51.950;5.902;2023-07-28T01:28:36;6.40;;;3.90;;
38465;SDS011;24244;51.950;5.902;2023-07-28T01:31:04;5.90;;;4.05;;
38465;SDS011;24244;51.950;5.902;2023-07-28T01:33:32;5.82;;;3.78;;
38465;SDS011;24244;51.950;5.902;2023-07-28T01:35:59;5.53;;;3.55;;
38465;SDS011;24244;51.950;5.902;2023-07-28T01:38:29;6.28;;;3.53;;
38465;SDS011;24244;51.950;5.902;2023-07-28T01:40:56;6.25;;;3.88;;
38465;SDS011;24244;51.950;5.902;2023-07-28T01:43:23;5.45;;;3.60;;
38465;SDS011;24244;51.950;5.902;2023-07-28T01:45:51;5.55;;;3.67;;
38465;SDS011;24244;51.950;5.902;2023-07-28T01:48:18;6.32;;;3.83;;
38465;SDS011;24244;51.950;5.902;2023-07-28T01:50:44;5.53;;;3.10;;
38465;SDS011;24244;51.950;5.902;2023-07-28T01:53:14;5.35;;;3.45;;
38465;SDS011;24244;51.950;5.902;2023-07-28T01:55:41;5.15;;;3.55;;
38465;SDS011;24244;51.950;5.902;2023-07-28T01:58:08;6.57;;;4.00;;
38465;SDS011;24244;51.950;5.902;2023-07-28T02:00:35;7.00;;;4.38;;
38465;SDS011;24244;51.950;5.902;2023-07-28T02:03:04;7.38;;;4.50;;
38465;SDS011;24244;51.950;5.902;2023-07-28T02:05:34;6.30;;;3.92;;
38465;SDS011;24244;51.950;5.902;2023-07-28T02:08:01;8.18;;;4.47;;
38465;SDS011;24244;51.950;5.902;2023-07-28T02:10:28;6.40;;;3.40;;
38465;SDS011;24244;51.950;5.902;2023-07-28T02:12:55;6.15;;;3.85;;
38465;SDS011;24244;51.950;5.902;2023-07-28T02:15:22;7.63;;;4.05;;
38465;SDS011;24244;51.950;5.902;2023-07-28T02:17:48;7.80;;;4.15;;
38465;SDS011;24244;51.950;5.902;2023-07-28T02:20:17;7.07;;;4.15;;
38465;SDS011;24244;51.950;5.902;2023-07-28T02:22:44;7.80;;;4.22;;
38465;SDS011;24244;51.950;5.902;2023-07-28T02:25:11;6.82;;;3.67;;
38465;SDS011;24244;51.950;5.902;2023-07-28T02:27:38;8.20;;;3.95;;
38465;SDS011;24244;51.950;5.902;2023-07-28T02:30:05;6.80;;;4.10;;
38465;SDS011;24244;51.950;5.902;2023-07-28T02:32:33;8.23;;;4.43;;
38465;SDS011;24244;51.950;5.902;2023-07-28T02:35:00;9.20;;;4.10;;
38465;SDS011;24244;51.950;5.902;2023-07-28T02:37:28;8.13;;;4.72;;
38465;SDS011;24244;51.950;5.902;2023-07-28T02:39:55;9.48;;;4.90;;
38465;SDS011;24244;51.950;5.902;2023-07-28T02:42:22;9.85;;;5.50;;
38465;SDS011;24244;51.950;5.902;2023-07-28T02:44:50;10.55;;;5.75;;
38465;SDS011;24244;51.950;5.902;2023-07-28T02:47:17;9.77;;;4.53;;
38465;SDS011;24244;51.950;5.902;2023-07-28T02:49:44;10.25;;;4.88;;
38465;SDS011;24244;51.950;5.902;2023-07-28T02:52:11;8.75;;;4.53;;
38465;SDS011;24244;51.950;5.902;2023-07-28T02:54:40;8.32;;;4.45;;
38465;SDS011;24244;51.950;5.902;2023-07-28T02:57:07;9.07;;;4.82;;
38465;SDS011;24244;51.950;5.902;2023-07-28T02:59:34;8.48;;;4.60;;
38465;SDS011;24244;51.950;5.902;2023-07-28T03:02:01;9.27;;;4.93;;
38465;SDS011;24244;51.950;5.902;2023-07-28T03:04:28;9.32;;;4.90;;
38465;SDS011;24244;51.950;5.902;2023-07-28T03:06:55;9.48;;;5.40;;
38465;SDS011;24244;51.950;5.902;2023-07-28T03:09:22;9.25;;;5.30;;
38465;SDS011;24244;51.950;5.902;2023-07-28T03:11:50;10.10;;;5.15;;
38465;SDS011;24244;51.950;5.902;2023-07-28T03:14:17;9.73;;;5.30;;
38465;SDS011;24244;51.950;5.902;2023-07-28T03:16:44;9.98;;;5.30;;
38465;SDS011;24244;51.950;5.902;2023-07-28T03:19:11;11.52;;;5.22;;
38465;SDS011;24244;51.950;5.902;2023-07-28T03:21:38;11.63;;;5.28;;
38465;SDS011;24244;51.950;5.902;2023-07-28T03:24:05;10.35;;;5.20;;
38465;SDS011;24244;51.950;5.902;2023-07-28T03:26:32;8.82;;;4.85;;
38465;SDS011;24244;51.950;5.902;2023-07-28T03:29:01;12.10;;;5.72;;
38465;SDS011;24244;51.950;5.902;2023-07-28T03:31:28;10.00;;;5.90;;
38465;SDS011;24244;51.950;5.902;2023-07-28T03:33:55;12.23;;;5.78;;
38465;SDS011;24244;51.950;5.902;2023-07-28T03:36:22;10.13;;;5.20;;
38465;SDS011;24244;51.950;5.902;2023-07-28T03:38:48;9.93;;;5.13;;
38465;SDS011;24244;51.950;5.902;2023-07-28T03:41:15;10.15;;;5.20;;
38465;SDS011;24244;51.950;5.902;2023-07-28T03:43:42;10.60;;;6.28;;
38465;SDS011;24244;51.950;5.902;2023-07-28T03:46:10;14.75;;;5.15;;
38465;SDS011;24244;51.950;5.902;2023-07-28T03:48:37;10.15;;;5.35;;
38465;SDS011;24244;51.950;5.902;2023-07-28T03:51:04;12.82;;;5.93;;
38465;SDS011;24244;51.950;5.902;2023-07-28T03:53:30;10.10;;;4.70;;
38465;SDS011;24244;51.950;5.902;2023-07-28T03:55:57;11.48;;;5.85;;
38465;SDS011;24244;51.950;5.902;2023-07-28T03:58:24;12.50;;;5.82;;
38465;SDS011;24244;51.950;5.902;2023-07-28T04:00:51;12.25;;;6.05;;
38465;SDS011;24244;51.950;5.902;2023-07-28T04:03:20;12.77;;;6.72;;
38465;SDS011;24244;51.950;5.902;2023-07-28T04:05:48;13.98;;;7.15;;
38465;SDS011;24244;51.950;5.902;2023-07-28T04:08:15;12.48;;;5.88;;
38465;SDS011;24244;51.950;5.902;2023-07-28T04:10:41;11.95;;;5.85;;
38465;SDS011;24244;51.950;5.902;2023-07-28T04:13:10;11.52;;;4.68;;
38465;SDS011;24244;51.950;5.902;2023-07-28T04:15:36;15.15;;;6.50;;
38465;SDS011;24244;51.950;5.902;2023-07-28T04:18:03;11.90;;;5.53;;
38465;SDS011;24244;51.950;5.902;2023-07-28T04:20:33;15.68;;;7.47;;
38465;SDS011;24244;51.950;5.902;2023-07-28T04:23:00;15.98;;;6.68;;
38465;SDS011;24244;51.950;5.902;2023-07-28T04:25:26;13.95;;;6.90;;
38465;SDS011;24244;51.950;5.902;2023-07-28T04:27:53;14.63;;;6.57;;
38465;SDS011;24244;51.950;5.902;2023-07-28T04:30:21;11.38;;;5.55;;
38465;SDS011;24244;51.950;5.902;2023-07-28T04:32:48;12.25;;;5.65;;
38465;SDS011;24244;51.950;5.902;2023-07-28T04:35:15;14.82;;;6.85;;
38465;SDS011;24244;51.950;5.902;2023-07-28T04:37:43;14.88;;;7.43;;
38465;SDS011;24244;51.950;5.902;2023-07-28T04:40:11;15.63;;;6.82;;
38465;SDS011;24244;51.950;5.902;2023-07-28T04:42:42;13.55;;;6.35;;
38465;SDS011;24244;51.950;5.902;2023-07-28T04:45:09;14.30;;;6.53;;
38465;SDS011;24244;51.950;5.902;2023-07-28T04:47:36;12.25;;;6.30;;
38465;SDS011;24244;51.950;5.902;2023-07-28T04:50:03;13.75;;;6.28;;
38465;SDS011;24244;51.950;5.902;2023-07-28T04:52:30;12.70;;;6.85;;
38465;SDS011;24244;51.950;5.902;2023-07-28T04:54:58;11.88;;;6.25;;
38465;SDS011;24244;51.950;5.902;2023-07-28T04:57:25;12.85;;;6.32;;
38465;SDS011;24244;51.950;5.902;2023-07-28T04:59:52;12.90;;;6.25;;
38465;SDS011;24244;51.950;5.902;2023-07-28T05:02:20;14.98;;;6.68;;
38465;SDS011;24244;51.950;5.902;2023-07-28T05:04:47;13.93;;;6.22;;
38465;SDS011;24244;51.950;5.902;2023-07-28T05:07:14;14.02;;;6.15;;
38465;SDS011;24244;51.950;5.902;2023-07-28T05:09:40;14.73;;;6.57;;
38465;SDS011;24244;51.950;5.902;2023-07-28T05:12:09;12.70;;;6.38;;
38465;SDS011;24244;51.950;5.902;2023-07-28T05:14:36;15.52;;;6.88;;
38465;SDS011;24244;51.950;5.902;2023-07-28T05:17:03;13.35;;;5.97;;
38465;SDS011;24244;51.950;5.902;2023-07-28T05:19:30;15.68;;;7.15;;
38465;SDS011;24244;51.950;5.902;2023-07-28T05:21:57;15.75;;;7.43;;
38465;SDS011;24244;51.950;5.902;2023-07-28T05:24:23;20.10;;;7.47;;
38465;SDS011;24244;51.950;5.902;2023-07-28T05:26:50;15.07;;;7.40;;
38465;SDS011;24244;51.950;5.902;2023-07-28T05:29:18;14.35;;;7.05;;
38465;SDS011;24244;51.950;5.902;2023-07-28T05:31:45;12.77;;;5.90;;
38465;SDS011;24244;51.950;5.902;2023-07-28T05:34:12;15.23;;;6.65;;
38465;SDS011;24244;51.950;5.902;2023-07-28T05:36:39;12.60;;;6.32;;
38465;SDS011;24244;51.950;5.902;2023-07-28T05:39:06;10.38;;;5.22;;
38465;SDS011;24244;51.950;5.902;2023-07-28T05:41:33;16.95;;;8.52;;
38465;SDS011;24244;51.950;5.902;2023-07-28T05:44:01;18.42;;;8.15;;
38465;SDS011;24244;51.950;5.902;2023-07-28T05:46:30;14.05;;;7.03;;
38465;SDS011;24244;51.950;5.902;2023-07-28T05:48:57;17.45;;;8.68;;
38465;SDS011;24244;51.950;5.902;2023-07-28T05:51:24;17.50;;;8.57;;
38465;SDS011;24244;51.950;5.902;2023-07-28T05:53:51;15.65;;;6.82;;
38465;SDS011;24244;51.950;5.902;2023-07-28T05:56:18;16.65;;;8.02;;
38465;SDS011;24244;51.950;5.902;2023-07-28T05:58:45;14.88;;;6.72;;
38465;SDS011;24244;51.950;5.902;2023-07-28T06:01:12;13.60;;;7.47;;
38465;SDS011;24244;51.950;5.902;2023-07-28T06:03:41;16.52;;;7.78;;
38465;SDS011;24244;51.950;5.902;2023-07-28T06:06:11;13.70;;;7.47;;
38465;SDS011;24244;51.950;5.902;2023-07-28T06:08:38;11.07;;;5.97;;
38465;SDS011;24244;51.950;5.902;2023-07-28T06:11:05;12.30;;;6.47;;
38465;SDS011;24244;51.950;5.902;2023-07-28T06:13:33;12.52;;;6.07;;
38465;SDS011;24244;51.950;5.902;2023-07-28T06:16:00;12.20;;;6.20;;
38465;SDS011;24244;51.950;5.902;2023-07-28T06:18:27;12.18;;;5.95;;
38465;SDS011;24244;51.950;5.902;2023-07-28T06:20:55;11.98;;;6.90;;
38465;SDS011;24244;51.950;5.902;2023-07-28T06:23:22;11.98;;;6.45;;
38465;SDS011;24244;51.950;5.902;2023-07-28T06:25:49;14.13;;;7.07;;
38465;SDS011;24244;51.950;5.902;2023-07-28T06:28:16;12.80;;;6.45;;
38465;SDS011;24244;51.950;5.902;2023-07-28T06:30:43;11.27;;;6.25;;
38465;SDS011;24244;51.950;5.902;2023-07-28T06:33:10;12.32;;;6.90;;
38465;SDS011;24244;51.950;5.902;2023-07-28T06:35:37;13.80;;;6.53;;
38465;SDS011;24244;51.950;5.902;2023-07-28T06:38:05;12.23;;;6.53;;
38465;SDS011;24244;51.950;5.902;2023-07-28T06:40:32;14.23;;;7.57;;
38465;SDS011;24244;51.950;5.902;2023-07-28T06:42:59;14.25;;;6.75;;
38465;SDS011;24244;51.950;5.902;2023-07-28T06:45:26;12.65;;;6.85;;
38465;SDS011;24244;51.950;5.902;2023-07-28T06:47:53;18.13;;;8.45;;
38465;SDS011;24244;51.950;5.902;2023-07-28T06:50:19;15.15;;;7.40;;
38465;SDS011;24244;51.950;5.902;2023-07-28T06:52:46;14.93;;;7.20;;
38465;SDS011;24244;51.950;5.902;2023-07-28T06:55:15;15.70;;;6.80;;
38465;SDS011;24244;51.950;5.902;2023-07-28T06:57:42;16.90;;;8.15;;
38465;SDS011;24244;51.950;5.902;2023-07-28T07:00:09;16.52;;;8.02;;
38465;SDS011;24244;51.950;5.902;2023-07-28T07:02:37;16.85;;;8.25;;
38465;SDS011;24244;51.950;5.902;2023-07-28T07:05:04;16.33;;;7.70;;
38465;SDS011;24244;51.950;5.902;2023-07-28T07:07:33;20.17;;;8.50;;
38465;SDS011;24244;51.950;5.902;2023-07-28T07:10:00;15.93;;;6.75;;
38465;SDS011;24244;51.950;5.902;2023-07-28T07:12:28;16.50;;;7.82;;
38465;SDS011;24244;51.950;5.902;2023-07-28T07:14:55;17.50;;;8.02;;
38465;SDS011;24244;51.950;5.902;2023-07-28T07:17:31;15.68;;;7.25;;
38465;SDS011;24244;51.950;5.902;2023-07-28T07:19:59;13.05;;;6.63;;
38465;SDS011;24244;51.950;5.902;2023-07-28T07:22:26;16.27;;;7.47;;
38465;SDS011;24244;51.950;5.902;2023-07-28T07:24:54;15.20;;;8.10;;
38465;SDS011;24244;51.950;5.902;2023-07-28T07:27:23;14.30;;;6.80;;
38465;SDS011;24244;51.950;5.902;2023-07-28T07:29:53;12.48;;;6.10;;
38465;SDS011;24244;51.950;5.902;2023-07-28T07:32:20;11.10;;;5.72;;
38465;SDS011;24244;51.950;5.902;2023-07-28T07:34:46;13.50;;;7.13;;
38465;SDS011;24244;51.950;5.902;2023-07-28T07:37:13;12.25;;;5.95;;
38465;SDS011;24244;51.950;5.902;2023-07-28T07:39:40;13.85;;;6.53;;
38465;SDS011;24244;51.950;5.902;2023-07-28T07:42:08;10.63;;;5.82;;
38465;SDS011;24244;51.950;5.902;2023-07-28T07:44:36;10.80;;;5.88;;
38465;SDS011;24244;51.950;5.902;2023-07-28T07:47:12;11.88;;;6.15;;
38465;SDS011;24244;51.950;5.902;2023-07-28T07:49:40;10.63;;;5.28;;
38465;SDS011;24244;51.950;5.902;2023-07-28T07:52:07;11.30;;;5.38;;
38465;SDS011;24244;51.950;5.902;2023-07-28T07:54:37;11.45;;;5.82;;
38465;SDS011;24244;51.950;5.902;2023-07-28T07:57:04;10.30;;;5.38;;
38465;SDS011;24244;51.950;5.902;2023-07-28T07:59:31;9.77;;;5.35;;
38465;SDS011;24244;51.950;5.902;2023-07-28T08:02:01;10.10;;;5.07;;
38465;SDS011;24244;51.950;5.902;2023-07-28T08:04:31;12.75;;;6.38;;
38465;SDS011;24244;51.950;5.902;2023-07-28T08:06:58;11.13;;;4.97;;
38465;SDS011;24244;51.950;5.902;2023-07-28T08:09:25;11.60;;;5.95;;
38465;SDS011;24244;51.950;5.902;2023-07-28T08:11:52;11.30;;;5.85;;
38465;SDS011;24244;51.950;5.902;2023-07-28T08:14:20;9.70;;;5.03;;
38465;SDS011;24244;51.950;5.902;2023-07-28T08:16:47;13.00;;;5.97;;
38465;SDS011;24244;51.950;5.902;2023-07-28T08:19:14;10.68;;;5.65;;
38465;SDS011;24244;51.950;5.902;2023-07-28T08:21:42;11.18;;;6.18;;
38465;SDS011;24244;51.950;5.902;2023-07-28T08:24:09;10.48;;;5.57;;
38465;SDS011;24244;51.950;5.902;2023-07-28T08:26:36;11.38;;;5.90;;
38465;SDS011;24244;51.950;5.902;2023-07-28T08:29:03;8.60;;;4.93;;
38465;SDS011;24244;51.950;5.902;2023-07-28T08:31:30;9.43;;;4.68;;
38465;SDS011;24244;51.950;5.902;2023-07-28T08:33:57;12.88;;;5.75;;
38465;SDS011;24244;51.950;5.902;2023-07-28T08:36:24;9.50;;;5.55;;
38465;SDS011;24244;51.950;5.902;2023-07-28T08:38:53;9.40;;;4.28;;
38465;SDS011;24244;51.950;5.902;2023-07-28T08:41:19;9.32;;;5.38;;
38465;SDS011;24244;51.950;5.902;2023-07-28T08:43:47;9.15;;;4.95;;
38465;SDS011;24244;51.950;5.902;2023-07-28T08:46:15;9.18;;;5.00;;
38465;SDS011;24244;51.950;5.902;2023-07-28T08:48:42;10.80;;;5.28;;
38465;SDS011;24244;51.950;5.902;2023-07-28T08:51:09;8.52;;;4.38;;
38465;SDS011;24244;51.950;5.902;2023-07-28T08:53:40;9.25;;;4.50;;
38465;SDS011;24244;51.950;5.902;2023-07-28T08:56:08;8.45;;;5.03;;
38465;SDS011;24244;51.950;5.902;2023-07-28T08:58:35;9.18;;;4.55;;
38465;SDS011;24244;51.950;5.902;2023-07-28T09:01:03;8.50;;;4.28;;
38465;SDS011;24244;51.950;5.902;2023-07-28T09:03:31;8.65;;;5.10;;
38465;SDS011;24244;51.950;5.902;2023-07-28T09:06:00;8.82;;;4.85;;
38465;SDS011;24244;51.950;5.902;2023-07-28T09:08:28;7.32;;;4.13;;
38465;SDS011;24244;51.950;5.902;2023-07-28T09:10:57;9.75;;;5.43;;
38465;SDS011;24244;51.950;5.902;2023-07-28T09:13:36;10.48;;;5.47;;
38465;SDS011;24244;51.950;5.902;2023-07-28T09:16:16;10.75;;;4.97;;
38465;SDS011;24244;51.950;5.902;2023-07-28T09:18:43;9.35;;;5.28;;
38465;SDS011;24244;51.950;5.902;2023-07-28T09:21:15;9.90;;;5.57;;
38465;SDS011;24244;51.950;5.902;2023-07-28T09:23:43;7.90;;;4.68;;
38465;SDS011;24244;51.950;5.902;2023-07-28T09:26:12;9.27;;;4.38;;
38465;SDS011;24244;51.950;5.902;2023-07-28T09:28:41;10.07;;;5.28;;
38465;SDS011;24244;51.950;5.902;2023-07-28T09:31:09;7.70;;;4.22;;
38465;SDS011;24244;51.950;5.902;2023-07-28T09:33:39;8.80;;;4.45;;
38465;SDS011;24244;51.950;5.902;2023-07-28T09:36:09;9.10;;;5.15;;
38465;SDS011;24244;51.950;5.902;2023-07-28T09:38:37;9.30;;;4.47;;
38465;SDS011;24244;51.950;5.902;2023-07-28T09:41:06;8.85;;;4.80;;
38465;SDS011;24244;51.950;5.902;2023-07-28T09:43:35;8.68;;;5.35;;
38465;SDS011;24244;51.950;5.902;2023-07-28T09:46:04;9.13;;;4.85;;
38465;SDS011;24244;51.950;5.902;2023-07-28T09:48:33;11.18;;;4.95;;
38465;SDS011;24244;51.950;5.902;2023-07-28T09:51:02;8.45;;;4.40;;
38465;SDS011;24244;51.950;5.902;2023-07-28T09:53:32;11.07;;;5.15;;
38465;SDS011;24244;51.950;5.902;2023-07-28T09:56:07;10.15;;;4.97;;
38465;SDS011;24244;51.950;5.902;2023-07-28T09:58:35;9.73;;;5.20;;
38465;SDS011;24244;51.950;5.902;2023-07-28T10:01:07;9.23;;;5.25;;
38465;SDS011;24244;51.950;5.902;2023-07-28T10:03:35;9.70;;;4.38;;
38465;SDS011;24244;51.950;5.902;2023-07-28T10:06:03;10.05;;;4.38;;
38465;SDS011;24244;51.950;5.902;2023-07-28T10:08:31;8.60;;;5.15;;
38465;SDS011;24244;51.950;5.902;2023-07-28T10:10:58;7.40;;;3.78;;
38465;SDS011;24244;51.950;5.902;2023-07-28T10:13:27;8.43;;;4.93;;
38465;SDS011;24244;51.950;5.902;2023-07-28T10:15:54;8.68;;;4.88;;
38465;SDS011;24244;51.950;5.902;2023-07-28T10:18:23;11.75;;;5.35;;
38465;SDS011;24244;51.950;5.902;2023-07-28T10:20:52;9.27;;;4.57;;
38465;SDS011;24244;51.950;5.902;2023-07-28T10:23:20;8.50;;;4.70;;
38465;SDS011;24244;51.950;5.902;2023-07-28T10:25:56;7.10;;;3.95;;
38465;SDS011;24244;51.950;5.902;2023-07-28T10:28:25;8.80;;;4.30;;
38465;SDS011;24244;51.950;5.902;2023-07-28T10:30:54;6.63;;;3.67;;
38465;SDS011;24244;51.950;5.902;2023-07-28T10:33:36;10.02;;;4.55;;
38465;SDS011;24244;51.950;5.902;2023-07-28T10:36:14;8.95;;;4.85;;
38465;SDS011;24244;51.950;5.902;2023-07-28T10:38:42;9.43;;;5.10;;
38465;SDS011;24244;51.950;5.902;2023-07-28T10:41:11;8.77;;;5.07;;
38465;SDS011;24244;51.950;5.902;2023-07-28T10:43:42;8.88;;;4.38;;
38465;SDS011;24244;51.950;5.902;2023-07-28T10:46:12;8.90;;;4.82;;
38465;SDS011;24244;51.950;5.902;2023-07-28T10:48:43;11.60;;;5.20;;
38465;SDS011;24244;51.950;5.902;2023-07-28T10:51:11;9.00;;;5.15;;
38465;SDS011;24244;51.950;5.902;2023-07-28T10:53:38;8.23;;;4.70;;
38465;SDS011;24244;51.950;5.902;2023-07-28T10:56:08;8.50;;;4.63;;
38465;SDS011;24244;51.950;5.902;2023-07-28T10:58:37;6.85;;;3.95;;
38465;SDS011;24244;51.950;5.902;2023-07-28T11:01:04;8.07;;;4.55;;
38465;SDS011;24244;51.950;5.902;2023-07-28T11:03:31;9.05;;;4.95;;
38465;SDS011;24244;51.950;5.902;2023-07-28T11:06:02;8.57;;;4.65;;
38465;SDS011;24244;51.950;5.902;2023-07-28T11:08:30;7.75;;;4.68;;
38465;SDS011;24244;51.950;5.902;2023-07-28T11:10:57;8.77;;;4.90;;
38465;SDS011;24244;51.950;5.902;2023-07-28T11:13:24;8.80;;;4.38;;
38465;SDS011;24244;51.950;5.902;2023-07-28T11:16:06;8.35;;;4.55;;
38465;SDS011;24244;51.950;5.902;2023-07-28T11:18:34;7.88;;;4.25;;
38465;SDS011;24244;51.950;5.902;2023-07-28T11:21:02;7.72;;;4.25;;
38465;SDS011;24244;51.950;5.902;2023-07-28T11:23:29;8.45;;;4.47;;
38465;SDS011;24244;51.950;5.902;2023-07-28T11:25:56;7.00;;;4.22;;
38465;SDS011;24244;51.950;5.902;2023-07-28T11:28:23;7.28;;;4.25;;
38465;SDS011;24244;51.950;5.902;2023-07-28T11:30:51;7.45;;;4.35;;
38465;SDS011;24244;51.950;5.902;2023-07-28T11:33:19;7.80;;;4.60;;
38465;SDS011;24244;51.950;5.902;2023-07-28T11:35:47;8.05;;;4.35;;
38465;SDS011;24244;51.950;5.902;2023-07-28T11:38:17;7.72;;;3.85;;
38465;SDS011;24244;51.950;5.902;2023-07-28T11:40:44;6.05;;;3.55;;
38465;SDS011;24244;51.950;5.902;2023-07-28T11:43:11;7.00;;;3.83;;
38465;SDS011;24244;51.950;5.902;2023-07-28T11:45:38;6.35;;;3.65;;
38465;SDS011;24244;51.950;5.902;2023-07-28T11:48:06;9.40;;;4.40;;
38465;SDS011;24244;51.950;5.902;2023-07-28T11:50:34;7.97;;;4.20;;
38465;SDS011;24244;51.950;5.902;2023-07-28T11:53:04;7.20;;;4.15;;
38465;SDS011;24244;51.950;5.902;2023-07-28T11:55:34;5.35;;;3.08;;
38465;SDS011;24244;51.950;5.902;2023-07-28T11:58:02;8.77;;;3.53;;
38465;SDS011;24244;51.950;5.902;2023-07-28T12:00:31;7.88;;;4.07;;
38465;SDS011;24244;51.950;5.902;2023-07-28T12:03:02;6.00;;;3.58;;
38465;SDS011;24244;51.950;5.902;2023-07-28T12:05:32;5.93;;;3.45;;
38465;SDS011;24244;51.950;5.902;2023-07-28T12:08:16;6.35;;;3.85;;
38465;SDS011;24244;51.950;5.902;2023-07-28T12:11:01;6.53;;;3.80;;
38465;SDS011;24244;51.950;5.902;2023-07-28T12:13:31;6.10;;;3.40;;
38465;SDS011;24244;51.950;5.902;2023-07-28T12:15:58;6.70;;;3.55;;
38465;SDS011;24244;51.950;5.902;2023-07-28T12:18:29;6.28;;;3.65;;
38465;SDS011;24244;51.950;5.902;2023-07-28T12:20:59;6.80;;;4.00;;
38465;SDS011;24244;51.950;5.902;2023-07-28T12:23:26;6.28;;;3.97;;
38465;SDS011;24244;51.950;5.902;2023-07-28T12:25:56;6.28;;;3.78;;
38465;SDS011;24244;51.950;5.902;2023-07-28T12:28:26;7.32;;;4.13;;
38465;SDS011;24244;51.950;5.902;2023-07-28T12:30:53;7.40;;;3.45;;
38465;SDS011;24244;51.950;5.902;2023-07-28T12:33:22;5.80;;;3.17;;
38465;SDS011;24244;51.950;5.902;2023-07-28T12:35:49;8.00;;;4.90;;
38465;SDS011;24244;51.950;5.902;2023-07-28T12:38:18;8.65;;;4.95;;
38465;SDS011;24244;51.950;5.902;2023-07-28T12:40:48;6.85;;;4.53;;
38465;SDS011;24244;51.950;5.902;2023-07-28T12:43:17;8.70;;;4.65;;
38465;SDS011;24244;51.950;5.902;2023-07-28T12:45:48;6.63;;;3.97;;
38465;SDS011;24244;51.950;5.902;2023-07-28T12:48:19;7.10;;;3.47;;
38465;SDS011;24244;51.950;5.902;2023-07-28T12:50:47;5.82;;;3.42;;
38465;SDS011;24244;51.950;5.902;2023-07-28T12:53:16;5.63;;;3.53;;
38465;SDS011;24244;51.950;5.902;2023-07-28T12:55:48;6.10;;;3.40;;
38465;SDS011;24244;51.950;5.902;2023-07-28T12:58:18;5.68;;;2.92;;
38465;SDS011;24244;51.950;5.902;2023-07-28T13:00:51;5.60;;;3.17;;
38465;SDS011;24244;51.950;5.902;2023-07-28T13:03:20;5.00;;;2.80;;
38465;SDS011;24244;51.950;5.902;2023-07-28T13:05:49;7.90;;;4.15;;
38465;SDS011;24244;51.950;5.902;2023-07-28T13:08:16;5.55;;;3.28;;
38465;SDS011;24244;51.950;5.902;2023-07-28T13:10:43;5.85;;;3.00;;
38465;SDS011;24244;51.950;5.902;2023-07-28T13:13:13;6.25;;;3.50;;
38465;SDS011;24244;51.950;5.902;2023-07-28T13:15:40;5.88;;;3.05;;
38465;SDS011;24244;51.950;5.902;2023-07-28T13:18:09;5.68;;;2.85;;
38465;SDS011;24244;51.950;5.902;2023-07-28T13:20:36;4.43;;;2.78;;
38465;SDS011;24244;51.950;5.902;2023-07-28T13:23:03;5.63;;;3.15;;
38465;SDS011;24244;51.950;5.902;2023-07-28T13:25:30;4.85;;;2.60;;
38465;SDS011;24244;51.950;5.902;2023-07-28T13:27:56;5.53;;;3.10;;
38465;SDS011;24244;51.950;5.902;2023-07-28T13:30:24;4.47;;;2.33;;
38465;SDS011;24244;51.950;5.902;2023-07-28T13:32:54;4.45;;;2.42;;
38465;SDS011;24244;51.950;5.902;2023-07-28T13:35:22;3.65;;;2.25;;
38465;SDS011;24244;51.950;5.902;2023-07-28T13:37:49;4.88;;;2.42;;
38465;SDS011;24244;51.950;5.902;2023-07-28T13:40:16;4.63;;;2.30;;
38465;SDS011;24244;51.950;5.902;2023-07-28T13:42:43;5.35;;;2.47;;
38465;SDS011;24244;51.950;5.902;2023-07-28T13:45:10;3.78;;;2.17;;
38465;SDS011;24244;51.950;5.902;2023-07-28T13:47:37;4.70;;;3.03;;
38465;SDS011;24244;51.950;5.902;2023-07-28T13:50:04;4.30;;;2.50;;
38465;SDS011;24244;51.950;5.902;2023-07-28T13:52:33;4.57;;;2.45;;
38465;SDS011;24244;51.950;5.902;2023-07-28T13:54:59;5.15;;;3.05;;
38465;SDS011;24244;51.950;5.902;2023-07-28T13:57:29;3.80;;;2.10;;
38465;SDS011;24244;51.950;5.902;2023-07-28T13:59:56;3.85;;;2.33;;
38465;SDS011;24244;51.950;5.902;2023-07-28T14:02:24;5.10;;;2.42;;
38465;SDS011;24244;51.950;5.902;2023-07-28T14:04:51;5.63;;;3.50;;
38465;SDS011;24244;51.950;5.902;2023-07-28T14:07:18;5.25;;;3.40;;
38465;SDS011;24244;51.950;5.902;2023-07-28T14:09:46;5.65;;;2.75;;
38465;SDS011;24244;51.950;5.902;2023-07-28T14:12:13;6.28;;;3.60;;
38465;SDS011;24244;51.950;5.902;2023-07-28T14:14:40;4.70;;;2.83;;
38465;SDS011;24244;51.950;5.902;2023-07-28T14:17:06;6.35;;;3.35;;
38465;SDS011;24244;51.950;5.902;2023-07-28T14:19:33;7.63;;;3.58;;
38465;SDS011;24244;51.950;5.902;2023-07-28T14:22:00;4.57;;;2.67;;
38465;SDS011;24244;51.950;5.902;2023-07-28T14:24:27;4.07;;;2.75;;
38465;SDS011;24244;51.950;5.902;2023-07-28T14:26:55;4.75;;;2.85;;
38465;SDS011;24244;51.950;5.902;2023-07-28T14:29:24;5.65;;;3.33;;
38465;SDS011;24244;51.950;5.902;2023-07-28T14:31:51;5.15;;;3.25;;
38465;SDS011;24244;51.950;5.902;2023-07-28T14:34:18;3.83;;;2.53;;
38465;SDS011;24244;51.950;5.902;2023-07-28T14:36:44;4.70;;;3.10;;
38465;SDS011;24244;51.950;5.902;2023-07-28T14:39:11;5.20;;;2.90;;
38465;SDS011;24244;51.950;5.902;2023-07-28T14:41:38;5.40;;;3.20;;
38465;SDS011;24244;51.950;5.902;2023-07-28T14:44:06;5.18;;;3.25;;
38465;SDS011;24244;51.950;5.902;2023-07-28T14:46:33;6.25;;;3.63;;
38465;SDS011;24244;51.950;5.902;2023-07-28T14:49:00;5.35;;;3.50;;